Crystal Falls, MI

11:21 AM CDT on August 29, 2015 (GMT -0500)
Bates Tower | | Change Station
CLOSE
Current Station
Personal Weather Station
Location: Iron River, MI
Elevation: 1765 ft
Nearby Weather Stations

Elev 1765 ft 46.10 °N, 88.54 °W | Updated 8 minutes ago

Mostly Cloudy
Mostly Cloudy
66.9 °F
Feels Like 66.9 °F
N
5.0
Wind Variable Wind from SSW
Gusts 12.0 mph

Today
High -- | Low -- °F
--% Chance of Precip.
Yesterday
High -- | Low -- °F
Precip. -- in
6:09 AM 7:37 PM
Full, 100% visible
Pressure 30.06 in
Visibility 10.0 miles
Clouds Mostly Cloudy 2200 ft
Dew Point 59 °F
Humidity 75%
Rainfall 0.00 in
Snow Depth Not available.
UV 4 out of 12
Pollen 8.40 out of 12
Air Quality Not available.
Flu Activity Not available.
METAR KIMT 291554Z AUTO 20007KT 10SM BKN022 22/15 A3006 RMK AO2 SLP179 T02170150
Pressure 30.06 in
Visibility 10.0 miles
Clouds Mostly Cloudy 2200 ft
Dew Point 59 °F
Humidity 75%
Rainfall 0.00 in
Snow Depth Not available.
UV 4 out of 12
Pollen 8.40 out of 12
Air Quality Not available.
Flu Activity Not available.
METAR KIMT 291554Z AUTO 20007KT 10SM BKN022 22/15 A3006 RMK AO2 SLP179 T02170150

10-Day Weather Forecast

×

Almanac

Astronomy

Aug. 29, 2015 Rise Set
Actual Time
Civil Twilight
Nautical Twilight
Astronomical Twilight
Moon
Length of Visible Light
Length of Day
Tomorrow will be .
, % of the Moon is Illuminated

Today's Extremes

State Highs State Lows

Community

WunderPhotos

Upload Photos

1,850,719 photos uploaded!

WunderBlogs® & News

Nearby

Air Quality

  Air Quality AQ Index Pollutant
Not available.

Snow Depth

Station Depth Elevation

Earthquake Activity

City Distance Mag. Time & Date
Minimum magnitude displayed is 2.5.

Coastal Water Temperatures

Place Temperature

Stations

Nearby Weather Stations

Station Location Temp. Windchill Dew Point Humidity Wind Precip. Elev Updated Type